createdAt,value
2023-05-25T00:01:49.149Z,2.80
2023-05-25T00:04:18.631Z,2.50
2023-05-25T00:06:47.398Z,2.97
2023-05-25T00:09:15.007Z,3.03
2023-05-25T00:11:42.568Z,3.80
2023-05-25T00:14:10.142Z,3.30
2023-05-25T00:16:37.961Z,3.43
2023-05-25T00:19:10.476Z,2.97
2023-05-25T00:21:41.401Z,3.17
2023-05-25T00:24:09.537Z,2.80
2023-05-25T00:26:37.160Z,2.97
2023-05-25T00:29:04.972Z,3.70
2023-05-25T00:31:33.557Z,3.70
2023-05-25T00:34:01.261Z,3.33
2023-05-25T00:36:30.080Z,3.33
2023-05-25T00:38:57.632Z,4.17
2023-05-25T00:41:26.303Z,3.17
2023-05-25T00:43:53.833Z,3.40
2023-05-25T00:46:22.361Z,3.93
2023-05-25T00:48:50.041Z,3.93
2023-05-25T00:51:17.593Z,4.10
2023-05-25T00:53:46.466Z,3.40
2023-05-25T00:56:16.508Z,4.10
2023-05-25T00:58:44.110Z,4.30
2023-05-25T01:01:12.724Z,4.47
2023-05-25T01:03:41.457Z,4.03
2023-05-25T01:06:11.962Z,4.10
2023-05-25T01:08:41.790Z,4.50
2023-05-25T01:11:12.734Z,4.07
2023-05-25T01:13:41.870Z,4.70
2023-05-25T01:16:10.527Z,4.60
2023-05-25T01:18:41.747Z,5.30
2023-05-25T01:21:13.989Z,3.47
2023-05-25T01:23:44.124Z,4.73
2023-05-25T01:26:14.860Z,4.80
2023-05-25T01:28:46.429Z,4.63
2023-05-25T01:31:15.829Z,4.00
2023-05-25T01:33:44.074Z,4.67
2023-05-25T01:36:12.947Z,5.07
2023-05-25T01:38:40.853Z,3.73
2023-05-25T01:41:08.403Z,3.90
2023-05-25T01:43:36.021Z,4.47
2023-05-25T01:46:09.339Z,5.50
2023-05-25T01:48:43.113Z,4.80
2023-05-25T01:51:19.279Z,4.10
2023-05-25T01:53:50.206Z,4.20
2023-05-25T01:56:18.207Z,4.77
2023-05-25T01:58:46.614Z,4.67
2023-05-25T02:01:15.881Z,4.97
2023-05-25T02:03:44.741Z,4.20
2023-05-25T02:06:13.584Z,4.80
2023-05-25T02:08:41.085Z,5.70
2023-05-25T02:11:08.647Z,4.93
2023-05-25T02:13:36.236Z,4.87
2023-05-25T02:16:03.771Z,4.30
2023-05-25T02:18:31.286Z,4.97
2023-05-25T02:20:58.783Z,5.00
2023-05-25T02:23:27.651Z,5.50
2023-05-25T02:25:56.027Z,4.70
2023-05-25T02:28:23.559Z,5.13
2023-05-25T02:30:51.272Z,6.40
2023-05-25T02:33:20.224Z,4.70
2023-05-25T02:35:47.766Z,5.33
2023-05-25T02:38:15.625Z,5.70
2023-05-25T02:40:44.459Z,5.23
2023-05-25T02:43:11.943Z,4.93
2023-05-25T02:45:39.450Z,5.00
2023-05-25T02:48:07.005Z,5.03
2023-05-25T02:50:34.536Z,4.90
2023-05-25T02:53:02.034Z,5.50
2023-05-25T02:55:29.958Z,5.80
2023-05-25T02:57:59.964Z,5.00
2023-05-25T03:00:27.545Z,4.13
2023-05-25T03:02:55.053Z,4.20
2023-05-25T03:05:22.571Z,6.10
2023-05-25T03:07:50.150Z,4.90
2023-05-25T03:10:17.678Z,5.83
2023-05-25T03:12:45.269Z,5.97
2023-05-25T03:15:14.188Z,4.60
2023-05-25T03:17:41.711Z,4.83
2023-05-25T03:20:10.689Z,5.90
2023-05-25T03:22:38.287Z,5.00
2023-05-25T03:25:06.612Z,5.27
2023-05-25T03:27:34.123Z,5.77
2023-05-25T03:30:02.254Z,5.33
2023-05-25T03:32:32.302Z,5.20
2023-05-25T03:35:00.352Z,6.10
2023-05-25T03:37:27.961Z,4.40
2023-05-25T03:39:55.500Z,4.40
2023-05-25T03:42:23.150Z,4.70
2023-05-25T03:44:50.688Z,5.53
2023-05-25T03:47:18.231Z,5.30
2023-05-25T03:49:47.106Z,5.00
2023-05-25T03:52:14.655Z,5.30
2023-05-25T03:54:42.156Z,5.80
2023-05-25T03:57:09.674Z,5.40
2023-05-25T03:59:37.180Z,4.67
2023-05-25T04:02:04.890Z,4.47
2023-05-25T04:04:32.534Z,4.97
2023-05-25T04:07:01.561Z,5.90
2023-05-25T04:09:29.121Z,6.07
2023-05-25T04:11:56.669Z,5.27
2023-05-25T04:14:24.204Z,5.87
2023-05-25T04:16:52.012Z,5.43
2023-05-25T04:19:19.576Z,5.70
2023-05-25T04:21:47.031Z,5.80
2023-05-25T04:24:16.020Z,5.40
2023-05-25T04:26:43.639Z,6.70
2023-05-25T04:29:11.171Z,5.07
2023-05-25T04:31:39.116Z,5.77
2023-05-25T04:34:06.608Z,5.53
2023-05-25T04:36:34.148Z,5.67
2023-05-25T04:39:04.141Z,5.93
2023-05-25T04:41:33.835Z,6.00
2023-05-25T04:44:07.998Z,6.10
2023-05-25T04:46:38.819Z,5.90
2023-05-25T04:49:08.471Z,5.40
2023-05-25T04:51:36.936Z,6.20
2023-05-25T04:54:04.744Z,4.80
2023-05-25T04:56:33.610Z,5.03
2023-05-25T04:59:01.117Z,5.20
2023-05-25T05:01:29.261Z,6.30
2023-05-25T05:03:57.188Z,7.03
2023-05-25T05:06:25.692Z,5.53
2023-05-25T05:08:53.225Z,5.37
2023-05-25T05:11:20.753Z,5.80
2023-05-25T05:13:49.606Z,4.87
2023-05-25T05:16:17.265Z,4.90
2023-05-25T05:18:44.813Z,5.17
2023-05-25T05:21:12.535Z,5.23
2023-05-25T05:23:40.393Z,5.63
2023-05-25T05:26:10.966Z,4.90
2023-05-25T05:28:38.575Z,5.50
2023-05-25T05:31:08.177Z,6.40
2023-05-25T05:33:35.828Z,5.30
2023-05-25T05:36:04.650Z,5.33
2023-05-25T05:38:32.225Z,4.83
2023-05-25T05:40:59.845Z,5.17
2023-05-25T05:43:27.590Z,5.63
2023-05-25T05:45:55.175Z,5.30
2023-05-25T05:48:24.082Z,5.43
2023-05-25T05:50:52.447Z,4.70
2023-05-25T05:53:20.067Z,5.40
2023-05-25T05:55:49.598Z,4.07
2023-05-25T05:58:19.317Z,4.97
2023-05-25T06:00:46.848Z,5.23
2023-05-25T06:03:14.440Z,4.07
2023-05-25T06:05:43.500Z,4.83
2023-05-25T06:08:11.736Z,5.57
2023-05-25T06:10:39.345Z,5.00
2023-05-25T06:13:07.843Z,4.67
2023-05-25T06:15:36.277Z,5.23
2023-05-25T06:18:04.012Z,4.70
2023-05-25T06:20:31.579Z,4.57
2023-05-25T06:23:00.525Z,4.17
2023-05-25T06:25:28.094Z,4.30
2023-05-25T06:27:55.807Z,4.90
2023-05-25T06:30:23.501Z,4.87
2023-05-25T06:32:51.198Z,4.40
2023-05-25T06:35:20.873Z,4.20
2023-05-25T06:37:49.220Z,5.07
2023-05-25T06:40:18.144Z,4.00
2023-05-25T06:42:45.713Z,4.17
2023-05-25T06:45:14.232Z,3.80
2023-05-25T06:47:41.737Z,5.17
2023-05-25T06:50:10.379Z,4.20
2023-05-25T06:52:37.924Z,3.87
2023-05-25T06:55:06.055Z,4.17
2023-05-25T06:57:34.877Z,3.80
2023-05-25T07:00:03.048Z,4.70
2023-05-25T07:02:30.600Z,4.70
2023-05-25T07:04:58.174Z,5.30
2023-05-25T07:07:25.779Z,4.17
2023-05-25T07:09:53.356Z,4.50
2023-05-25T07:12:21.402Z,4.33
2023-05-25T07:14:50.340Z,4.03
2023-05-25T07:17:17.924Z,3.43
2023-05-25T07:19:45.526Z,4.70
2023-05-25T07:22:13.093Z,4.33
2023-05-25T07:24:40.643Z,3.90
2023-05-25T07:27:08.193Z,4.57
2023-05-25T07:29:35.750Z,4.00
2023-05-25T07:32:05.255Z,3.50
2023-05-25T07:34:32.778Z,3.63
2023-05-25T07:37:00.384Z,4.53
2023-05-25T07:39:27.986Z,3.87
2023-05-25T07:41:55.560Z,4.10
2023-05-25T07:44:23.100Z,4.50
2023-05-25T07:46:50.794Z,4.70
2023-05-25T07:49:19.667Z,5.10
2023-05-25T07:51:47.228Z,4.77
2023-05-25T07:54:14.769Z,4.60
2023-05-25T07:56:42.478Z,5.27
2023-05-25T07:59:10.076Z,5.97
2023-05-25T08:01:38.899Z,5.33
2023-05-25T08:04:06.553Z,5.07
2023-05-25T08:06:35.615Z,4.20
2023-05-25T08:09:04.796Z,3.90
2023-05-25T08:11:32.456Z,3.57
2023-05-25T08:14:00.660Z,3.53
2023-05-25T08:16:28.357Z,3.10
2023-05-25T08:18:55.966Z,2.90
2023-05-25T08:21:23.764Z,3.07
2023-05-25T08:23:53.964Z,3.70
2023-05-25T08:28:56.357Z,3.80
2023-05-25T08:31:24.009Z,3.37
2023-05-25T08:33:51.712Z,3.40
2023-05-25T08:36:19.747Z,3.33
2023-05-25T08:38:47.228Z,2.83
2023-05-25T08:41:16.690Z,3.20
2023-05-25T08:43:44.340Z,3.63
2023-05-25T08:46:12.335Z,2.97
2023-05-25T08:48:42.370Z,3.40
2023-05-25T08:51:11.705Z,3.27
2023-05-25T08:53:41.525Z,3.10
2023-05-25T08:56:12.572Z,3.10
2023-05-25T08:58:47.106Z,2.73
2023-05-25T09:01:16.486Z,4.37
2023-05-25T09:03:45.048Z,2.90
2023-05-25T09:06:12.919Z,2.67
2023-05-25T09:08:40.648Z,2.90
2023-05-25T09:11:09.914Z,2.77
2023-05-25T09:13:38.177Z,3.17
2023-05-25T09:16:07.524Z,2.97
2023-05-25T09:18:35.327Z,3.40
2023-05-25T09:21:03.453Z,2.50
2023-05-25T09:23:31.593Z,3.03
2023-05-25T09:25:59.369Z,2.40
2023-05-25T09:28:27.774Z,3.00
2023-05-25T09:30:55.649Z,2.57
2023-05-25T09:33:24.670Z,2.80
2023-05-25T09:35:52.562Z,2.97
2023-05-25T09:38:20.678Z,2.80
2023-05-25T09:40:48.546Z,2.53
2023-05-25T09:43:25.344Z,2.90
2023-05-25T09:45:56.547Z,2.43
2023-05-25T09:48:25.460Z,2.80
2023-05-25T09:50:52.968Z,2.53
2023-05-25T09:53:20.508Z,3.33
2023-05-25T09:55:53.750Z,2.50
2023-05-25T09:58:23.582Z,3.30
2023-05-25T10:00:54.614Z,2.60
2023-05-25T10:03:22.481Z,2.47
2023-05-25T10:05:53.118Z,2.73
2023-05-25T10:08:22.166Z,3.50
2023-05-25T10:10:51.197Z,2.63
2023-05-25T10:13:21.789Z,3.40
2023-05-25T10:15:50.129Z,2.53
2023-05-25T10:18:20.912Z,3.00
2023-05-25T10:20:51.363Z,3.30
2023-05-25T10:23:19.549Z,2.13
2023-05-25T10:25:50.762Z,2.50
2023-05-25T10:28:21.765Z,2.87
2023-05-25T10:30:50.504Z,2.90
2023-05-25T10:33:18.378Z,3.00
2023-05-25T10:36:02.410Z,2.70
2023-05-25T10:38:35.782Z,3.13
2023-05-25T10:41:05.457Z,2.47
2023-05-25T10:43:33.514Z,2.50
2023-05-25T10:46:01.100Z,3.27
2023-05-25T10:48:36.866Z,2.50
2023-05-25T10:51:04.633Z,3.30
2023-05-25T10:53:32.230Z,2.53
2023-05-25T10:56:05.360Z,2.73
2023-05-25T10:58:34.103Z,2.50
2023-05-25T11:01:03.235Z,2.70
2023-05-25T11:03:51.456Z,2.67
2023-05-25T11:06:21.466Z,2.20
2023-05-25T11:08:54.983Z,2.30
2023-05-25T11:11:59.768Z,2.67
2023-05-25T11:14:30.122Z,1.80
2023-05-25T11:17:10.340Z,3.00
2023-05-25T11:19:42.916Z,2.87
2023-05-25T11:22:20.207Z,3.33
2023-05-25T11:24:48.004Z,2.63
2023-05-25T11:27:16.852Z,2.43
2023-05-25T11:29:44.560Z,3.10
2023-05-25T11:32:16.175Z,2.37
2023-05-25T11:34:46.423Z,2.70
2023-05-25T11:37:16.485Z,2.23
2023-05-25T11:39:47.668Z,2.70
2023-05-25T11:42:17.095Z,2.80
2023-05-25T11:44:45.143Z,2.97
2023-05-25T11:47:14.405Z,2.57
2023-05-25T11:49:44.189Z,2.50
2023-05-25T11:52:11.827Z,2.57
2023-05-25T11:54:41.117Z,2.90
2023-05-25T11:57:17.892Z,2.20
2023-05-25T11:59:50.330Z,2.80
2023-05-25T12:02:18.193Z,2.60
2023-05-25T12:04:54.185Z,2.67
2023-05-25T12:07:21.827Z,2.93
2023-05-25T12:09:49.557Z,3.03
2023-05-25T12:12:18.393Z,2.40
2023-05-25T12:14:49.219Z,2.80
2023-05-25T12:17:17.423Z,3.10
2023-05-25T12:19:45.556Z,3.10
2023-05-25T12:22:14.062Z,3.13
2023-05-25T12:24:41.900Z,2.93
2023-05-25T12:27:19.508Z,2.90
2023-05-25T12:29:47.432Z,2.87
2023-05-25T12:32:14.960Z,3.37
2023-05-25T12:34:42.880Z,2.97
2023-05-25T12:37:18.933Z,3.03
2023-05-25T12:39:46.614Z,2.73
2023-05-25T12:42:15.992Z,3.37
2023-05-25T12:44:47.281Z,2.80
2023-05-25T12:47:16.449Z,3.00
2023-05-25T12:49:45.592Z,3.20
2023-05-25T12:52:32.402Z,2.83
2023-05-25T12:55:00.146Z,3.00
2023-05-25T12:57:36.113Z,2.90
2023-05-25T13:00:06.372Z,3.00
2023-05-25T13:02:33.927Z,3.07
2023-05-25T13:05:57.467Z,3.20
2023-05-25T13:08:25.189Z,3.37
2023-05-25T13:10:52.659Z,2.90
2023-05-25T13:13:20.354Z,2.63
2023-05-25T13:15:49.197Z,3.07
2023-05-25T13:18:16.696Z,3.23
2023-05-25T13:20:45.336Z,2.63
2023-05-25T13:23:14.868Z,3.93
2023-05-25T13:25:42.464Z,2.40
2023-05-25T13:28:09.997Z,2.57
2023-05-25T13:30:37.539Z,3.23
2023-05-25T13:33:06.486Z,3.10
2023-05-25T13:35:58.018Z,3.03
2023-05-25T13:38:25.921Z,2.97
2023-05-25T13:40:53.465Z,3.87
2023-05-25T13:43:20.959Z,3.50
2023-05-25T13:45:48.562Z,3.00
2023-05-25T13:48:17.933Z,2.83
2023-05-25T13:50:45.935Z,2.97
2023-05-25T13:53:14.073Z,3.87
2023-05-25T13:55:41.584Z,3.20
2023-05-25T13:58:09.261Z,3.13
2023-05-25T14:00:36.824Z,3.50
2023-05-25T14:03:04.426Z,2.87
2023-05-25T14:05:33.329Z,3.50
2023-05-25T14:08:02.564Z,3.70
2023-05-25T14:10:30.083Z,3.47
2023-05-25T14:12:57.608Z,2.93
2023-05-25T14:15:25.381Z,2.73
2023-05-25T14:17:54.542Z,3.03
2023-05-25T14:20:25.949Z,3.53
2023-05-25T14:22:55.198Z,3.67
2023-05-25T14:25:22.729Z,3.60
2023-05-25T14:27:50.286Z,3.53
2023-05-25T14:30:17.942Z,3.70
2023-05-25T14:32:45.584Z,3.37
2023-05-25T14:35:13.120Z,3.30
2023-05-25T14:37:41.483Z,3.90
2023-05-25T14:40:11.918Z,3.70
2023-05-25T14:42:39.462Z,3.80
2023-05-25T14:45:10.803Z,3.97
2023-05-25T14:47:39.242Z,3.20
2023-05-25T14:50:07.813Z,4.43
2023-05-25T14:52:36.441Z,3.77
2023-05-25T14:55:04.069Z,3.90
2023-05-25T14:57:32.942Z,3.60
2023-05-25T15:00:00.574Z,4.40
2023-05-25T15:02:28.301Z,3.57
2023-05-25T15:04:55.864Z,3.70
2023-05-25T15:07:23.396Z,2.80
2023-05-25T15:09:50.983Z,3.37
2023-05-25T15:12:18.488Z,3.67
2023-05-25T15:14:47.408Z,4.00
2023-05-25T15:17:14.954Z,3.77
2023-05-25T15:19:42.438Z,3.37
2023-05-25T15:22:09.958Z,3.73
2023-05-25T15:24:37.477Z,3.90
2023-05-25T15:27:06.439Z,3.97
2023-05-25T15:29:33.957Z,3.40
2023-05-25T15:32:02.982Z,3.97
2023-05-25T15:34:30.677Z,3.57
2023-05-25T15:36:58.163Z,3.40
2023-05-25T15:39:27.564Z,3.67
2023-05-25T15:41:55.037Z,4.10
2023-05-25T15:44:22.551Z,3.83
2023-05-25T15:46:50.243Z,3.80
2023-05-25T15:49:19.887Z,3.87
2023-05-25T15:51:47.410Z,4.10
2023-05-25T15:54:15.185Z,3.57
2023-05-25T15:56:42.852Z,3.00
2023-05-25T15:59:12.107Z,3.77
2023-05-25T16:01:39.664Z,3.67
2023-05-25T16:04:07.251Z,4.70
2023-05-25T16:06:36.297Z,4.20
2023-05-25T16:09:04.356Z,4.20
2023-05-25T16:11:33.915Z,4.20
2023-05-25T16:14:01.461Z,3.50
2023-05-25T16:16:29.578Z,3.77
2023-05-25T16:18:57.283Z,4.10
2023-05-25T16:21:29.667Z,4.10
2023-05-25T16:23:58.490Z,4.20
2023-05-25T16:26:26.968Z,4.50
2023-05-25T16:28:54.507Z,3.97
2023-05-25T16:31:22.065Z,4.27
2023-05-25T16:33:49.591Z,4.10
2023-05-25T16:36:17.187Z,4.10
2023-05-25T16:38:45.696Z,3.57
2023-05-25T16:41:14.657Z,3.63
2023-05-25T16:43:42.170Z,4.47
2023-05-25T16:46:09.757Z,3.70
2023-05-25T16:48:37.277Z,3.37
2023-05-25T16:51:04.985Z,5.00
2023-05-25T16:53:32.460Z,3.80
2023-05-25T16:56:00.134Z,4.00
2023-05-25T16:58:29.023Z,4.90
2023-05-25T17:00:59.507Z,3.60
2023-05-25T17:03:27.220Z,3.57
2023-05-25T17:05:54.886Z,4.30
2023-05-25T17:08:22.978Z,4.13
2023-05-25T17:10:50.733Z,4.30
2023-05-25T17:13:18.264Z,3.70
2023-05-25T17:15:47.387Z,4.63
2023-05-25T17:18:15.293Z,3.80
2023-05-25T17:20:42.920Z,3.53
2023-05-25T17:23:10.745Z,3.70
2023-05-25T17:25:39.274Z,3.83
2023-05-25T17:28:07.265Z,3.53
2023-05-25T17:30:34.932Z,3.67
2023-05-25T17:33:03.864Z,3.80
2023-05-25T17:35:38.194Z,3.23
2023-05-25T17:38:05.994Z,3.60
2023-05-25T17:40:33.610Z,3.47
2023-05-25T17:43:01.197Z,3.53
2023-05-25T17:45:28.892Z,3.00
2023-05-25T17:47:57.362Z,2.90
2023-05-25T17:50:28.792Z,3.00
2023-05-25T17:52:56.513Z,3.57
2023-05-25T17:55:26.982Z,3.00
2023-05-25T17:57:54.614Z,2.87
2023-05-25T18:00:28.508Z,3.03
2023-05-25T18:02:56.248Z,3.17
2023-05-25T18:05:24.110Z,2.97
2023-05-25T18:07:53.128Z,3.30
2023-05-25T18:10:20.783Z,3.33
2023-05-25T18:12:52.209Z,3.10
2023-05-25T18:15:19.940Z,2.93
2023-05-25T18:17:47.495Z,2.80
2023-05-25T18:20:15.192Z,3.73
2023-05-25T18:22:42.762Z,2.70
2023-05-25T18:25:11.797Z,2.57
2023-05-25T18:27:39.305Z,3.30
2023-05-25T18:30:08.446Z,2.60
2023-05-25T18:32:36.178Z,2.23
2023-05-25T18:35:03.896Z,3.37
2023-05-25T18:37:34.214Z,2.80
2023-05-25T18:40:01.844Z,3.40
2023-05-25T18:42:30.782Z,3.23
2023-05-25T18:44:58.363Z,3.60
2023-05-25T18:47:26.545Z,3.20
2023-05-25T18:49:54.221Z,2.90
2023-05-25T18:52:22.367Z,2.90
2023-05-25T18:54:49.921Z,3.00
2023-05-25T18:57:17.530Z,2.63
2023-05-25T18:59:46.929Z,3.20
2023-05-25T19:02:14.502Z,3.20
2023-05-25T19:04:42.004Z,2.50
2023-05-25T19:07:09.522Z,3.60
2023-05-25T19:09:37.024Z,3.07
2023-05-25T19:12:06.982Z,2.63
2023-05-25T19:14:34.489Z,3.77
2023-05-25T19:17:03.361Z,3.33
2023-05-25T19:19:30.891Z,4.63
2023-05-25T19:21:58.442Z,3.30
2023-05-25T19:24:25.925Z,3.53
2023-05-25T19:26:53.410Z,2.80
2023-05-25T19:29:21.171Z,3.17
2023-05-25T19:31:48.862Z,2.87
2023-05-25T19:34:18.300Z,2.30
2023-05-25T19:36:46.253Z,2.93
2023-05-25T19:39:14.812Z,3.30
2023-05-25T19:41:42.357Z,3.03
2023-05-25T19:44:10.471Z,2.93
2023-05-25T19:46:39.737Z,2.90
2023-05-25T19:49:07.292Z,3.60
2023-05-25T19:51:37.175Z,3.27
2023-05-25T19:54:04.796Z,3.30
2023-05-25T19:56:32.414Z,2.90
2023-05-25T19:59:00.222Z,2.83
2023-05-25T20:01:27.806Z,4.10
2023-05-25T20:03:55.499Z,3.07
2023-05-25T20:06:23.053Z,2.90
2023-05-25T20:08:51.908Z,3.20
2023-05-25T20:11:19.448Z,3.10
2023-05-25T20:13:48.097Z,3.20
2023-05-25T20:16:15.668Z,3.30
2023-05-25T20:18:44.540Z,3.23
2023-05-25T20:21:12.171Z,3.43
2023-05-25T20:23:39.791Z,2.90
2023-05-25T20:26:08.677Z,3.40
2023-05-25T20:28:36.206Z,2.87
2023-05-25T20:31:03.792Z,3.30
2023-05-25T20:33:31.315Z,3.67
2023-05-25T20:35:58.865Z,3.83
2023-05-25T20:38:26.407Z,3.37
2023-05-25T20:40:53.954Z,3.30
2023-05-25T20:43:22.909Z,3.43
2023-05-25T20:45:50.592Z,4.10
2023-05-25T20:48:18.177Z,3.80
2023-05-25T20:50:45.901Z,3.97
2023-05-25T20:53:18.355Z,3.47
2023-05-25T20:55:47.278Z,4.10
2023-05-25T20:58:15.215Z,3.40
2023-05-25T21:00:46.311Z,3.23
2023-05-25T21:03:13.937Z,3.70
2023-05-25T21:05:41.631Z,3.40
2023-05-25T21:08:09.312Z,4.07
2023-05-25T21:10:37.146Z,3.23
2023-05-25T21:13:04.739Z,3.97
2023-05-25T21:15:32.358Z,4.07
2023-05-25T21:18:03.350Z,4.43
2023-05-25T21:20:31.061Z,4.20
2023-05-25T21:22:58.717Z,4.00
2023-05-25T21:25:26.204Z,4.60
2023-05-25T21:27:55.444Z,4.23
2023-05-25T21:30:24.629Z,4.63
2023-05-25T21:32:52.285Z,4.20
2023-05-25T21:35:21.295Z,5.37
2023-05-25T21:37:48.960Z,3.90
2023-05-25T21:40:16.683Z,5.40
2023-05-25T21:42:44.180Z,3.23
2023-05-25T21:45:11.732Z,4.50
2023-05-25T21:47:39.322Z,4.17
2023-05-25T21:52:37.710Z,4.50
2023-05-25T21:55:05.957Z,5.17
2023-05-25T21:57:33.464Z,5.77
2023-05-25T22:00:01.033Z,4.60
2023-05-25T22:02:28.730Z,4.60
2023-05-25T22:04:56.292Z,5.83
2023-05-25T22:07:23.849Z,5.23
2023-05-25T22:09:52.703Z,5.10
2023-05-25T22:12:21.100Z,5.10
2023-05-25T22:14:48.800Z,5.97
2023-05-25T22:17:18.788Z,4.97
2023-05-25T22:19:59.049Z,5.93
2023-05-25T22:22:33.888Z,5.57
2023-05-25T22:25:02.847Z,5.23
2023-05-25T22:27:30.395Z,4.57
2023-05-25T22:29:58.011Z,5.70
2023-05-25T22:32:26.837Z,5.30
2023-05-25T22:34:54.426Z,5.40
2023-05-25T22:37:22.066Z,5.57
2023-05-25T22:39:49.905Z,5.90
2023-05-25T22:42:18.804Z,5.20
2023-05-25T22:44:46.522Z,5.00
2023-05-25T22:47:14.323Z,4.90
2023-05-25T22:49:44.434Z,4.40
2023-05-25T22:52:12.757Z,5.47
2023-05-25T22:54:40.678Z,4.90
2023-05-25T22:57:10.527Z,4.70
2023-05-25T22:59:39.411Z,5.30
2023-05-25T23:02:07.429Z,4.60
2023-05-25T23:04:36.300Z,5.10
2023-05-25T23:07:03.939Z,4.57
2023-05-25T23:09:31.483Z,4.30
2023-05-25T23:11:58.975Z,4.90
2023-05-25T23:14:26.826Z,5.07
2023-05-25T23:16:55.804Z,5.17
2023-05-25T23:19:25.772Z,3.90
2023-05-25T23:21:54.230Z,4.47
2023-05-25T23:24:21.766Z,4.80
2023-05-25T23:26:49.598Z,3.93
2023-05-25T23:29:17.130Z,3.97
2023-05-25T23:31:44.636Z,3.77
2023-05-25T23:34:13.580Z,3.73
2023-05-25T23:36:42.716Z,4.13
2023-05-25T23:39:10.225Z,4.20
2023-05-25T23:41:37.822Z,5.03
2023-05-25T23:44:05.522Z,4.53
2023-05-25T23:46:33.091Z,3.90
2023-05-25T23:49:00.680Z,4.33
2023-05-25T23:51:29.541Z,4.43
2023-05-25T23:53:57.060Z,4.13
2023-05-25T23:56:24.728Z,4.30
2023-05-25T23:58:52.514Z,5.50
